createdAt,value
2018-10-01T00:00:11.022Z,17.27
2018-10-01T00:02:39.730Z,17.97
2018-10-01T00:05:08.752Z,17.30
2018-10-01T00:07:37.888Z,17.90
2018-10-01T00:10:06.951Z,18.93
2018-10-01T00:12:36.062Z,18.20
2018-10-01T00:15:05.190Z,17.33
2018-10-01T00:17:34.210Z,16.97
2018-10-01T00:20:08.774Z,16.80
2018-10-01T00:22:43.278Z,17.13
2018-10-01T00:25:12.390Z,16.17
2018-10-01T00:27:41.450Z,16.83
2018-10-01T00:30:10.554Z,15.43
2018-10-01T00:32:39.666Z,16.37
2018-10-01T00:35:08.742Z,16.63
2018-10-01T00:37:37.927Z,18.17
2018-10-01T00:40:07.157Z,19.40
2018-10-01T00:42:36.547Z,19.17
2018-10-01T00:45:06.245Z,18.70
2018-10-01T00:47:35.426Z,17.57
2018-10-01T00:50:04.746Z,18.90
2018-10-01T00:52:33.833Z,20.03
2018-10-01T00:55:02.881Z,19.53
2018-10-01T00:57:31.987Z,21.63
2018-10-01T01:00:01.043Z,21.77
2018-10-01T01:02:30.153Z,22.73
2018-10-01T01:04:59.206Z,21.53
2018-10-01T01:07:28.245Z,21.60
2018-10-01T01:09:57.355Z,23.73
2018-10-01T01:12:26.511Z,23.87
2018-10-01T01:14:55.621Z,22.80
2018-10-01T01:17:24.702Z,22.90
2018-10-01T01:19:53.837Z,23.40
2018-10-01T01:22:22.909Z,23.33
2018-10-01T01:24:51.930Z,22.80
2018-10-01T01:27:21.215Z,22.87
2018-10-01T01:29:50.283Z,22.03
2018-10-01T01:32:19.357Z,21.70
2018-10-01T01:34:48.777Z,21.20
2018-10-01T01:37:17.881Z,21.40
2018-10-01T01:39:47.089Z,19.97
2018-10-01T01:42:16.177Z,21.50
2018-10-01T01:44:45.225Z,18.07
2018-10-01T01:47:14.749Z,19.53
2018-10-01T01:49:43.962Z,17.83
2018-10-01T01:52:13.036Z,17.50
2018-10-01T01:54:42.037Z,16.83
2018-10-01T01:57:16.845Z,16.93
2018-10-01T01:59:45.976Z,15.27
2018-10-01T02:02:15.092Z,14.77
2018-10-01T02:04:44.209Z,13.90
2018-10-01T02:07:13.240Z,14.57
2018-10-01T02:09:42.365Z,13.50
2018-10-01T02:12:11.469Z,12.50
2018-10-01T02:14:40.549Z,11.90
2018-10-01T02:17:09.633Z,11.20
2018-10-01T02:19:38.765Z,11.10
2018-10-01T02:22:07.893Z,11.30
2018-10-01T02:24:36.882Z,10.03
2018-10-01T02:27:05.971Z,10.57
2018-10-01T02:29:35.017Z,11.00
2018-10-01T02:32:04.120Z,10.50
2018-10-01T02:34:33.223Z,10.70
2018-10-01T02:37:02.290Z,11.30
2018-10-01T02:39:31.395Z,10.57
2018-10-01T02:42:00.515Z,10.57
2018-10-01T02:44:29.547Z,9.23
2018-10-01T02:46:58.571Z,11.03
2018-10-01T02:49:27.665Z,10.37
2018-10-01T02:52:02.323Z,9.77
2018-10-01T02:54:32.302Z,11.27
2018-10-01T02:57:01.970Z,10.23
2018-10-01T02:59:31.057Z,10.67
2018-10-01T03:02:00.148Z,10.67
2018-10-01T03:04:29.239Z,11.00
2018-10-01T03:06:58.286Z,11.77
2018-10-01T03:09:27.306Z,10.70
2018-10-01T03:11:56.403Z,12.00
2018-10-01T03:14:25.485Z,11.77
2018-10-01T03:16:54.562Z,11.93
2018-10-01T03:19:23.648Z,11.97
2018-10-01T03:21:52.697Z,13.37
2018-10-01T03:24:21.873Z,11.33
2018-10-01T03:26:50.991Z,13.37
2018-10-01T03:29:20.050Z,11.80
2018-10-01T03:31:49.159Z,12.30
2018-10-01T03:34:18.299Z,12.53
2018-10-01T03:36:47.322Z,11.03
2018-10-01T03:39:16.426Z,10.97
2018-10-01T03:41:45.587Z,11.03
2018-10-01T03:44:14.612Z,10.87
2018-10-01T03:46:43.718Z,10.80
2018-10-01T03:49:12.826Z,10.43
2018-10-01T03:51:41.922Z,10.40
2018-10-01T03:54:11.028Z,10.83
2018-10-01T03:56:40.092Z,8.70
2018-10-01T03:59:09.101Z,10.23
2018-10-01T04:01:38.194Z,9.00
2018-10-01T04:04:07.284Z,9.27
2018-10-01T04:06:36.518Z,8.60
2018-10-01T04:09:07.350Z,8.43
2018-10-01T04:11:36.466Z,8.73
2018-10-01T04:14:05.582Z,8.63
2018-10-01T04:16:34.612Z,8.83
2018-10-01T04:19:03.633Z,7.17
2018-10-01T04:21:32.681Z,7.00
2018-10-01T04:24:01.715Z,6.10
2018-10-01T04:26:30.781Z,6.03
2018-10-01T04:28:59.859Z,6.43
2018-10-01T04:31:28.977Z,6.30
2018-10-01T04:33:58.078Z,6.53
2018-10-01T04:36:27.133Z,7.20
2018-10-01T04:38:56.161Z,6.80
2018-10-01T04:41:25.286Z,7.00
2018-10-01T04:43:54.325Z,7.53
2018-10-01T04:46:23.311Z,7.37
2018-10-01T04:48:52.372Z,8.10
2018-10-01T04:51:21.437Z,8.27
2018-10-01T04:53:50.541Z,8.50
2018-10-01T04:56:19.603Z,8.00
2018-10-01T04:58:48.593Z,7.60
2018-10-01T05:01:17.679Z,7.80
2018-10-01T05:03:46.708Z,8.77
2018-10-01T05:06:15.941Z,8.30
2018-10-01T05:08:44.882Z,8.53
2018-10-01T05:11:13.905Z,8.57
2018-10-01T05:13:43.158Z,8.23
2018-10-01T05:16:12.169Z,8.63
2018-10-01T05:18:41.267Z,8.47
2018-10-01T05:21:10.502Z,8.10
2018-10-01T05:23:39.590Z,8.30
2018-10-01T05:26:08.564Z,9.43
2018-10-01T05:28:37.676Z,9.63
2018-10-01T05:31:07.059Z,10.03
2018-10-01T05:33:36.216Z,9.93
2018-10-01T05:36:05.290Z,9.33
2018-10-01T05:38:34.311Z,10.27
2018-10-01T05:41:03.345Z,9.90
2018-10-01T05:43:32.465Z,10.00
2018-10-01T05:46:01.529Z,9.63
2018-10-01T05:48:30.612Z,9.97
2018-10-01T05:50:59.931Z,9.60
2018-10-01T05:53:29.019Z,9.63
2018-10-01T05:55:58.040Z,9.53
2018-10-01T05:58:27.211Z,9.40
2018-10-01T06:00:56.407Z,10.50
2018-10-01T06:03:25.545Z,8.67
2018-10-01T06:05:54.568Z,9.00
2018-10-01T06:08:23.587Z,8.03
2018-10-01T06:10:52.714Z,7.87
2018-10-01T06:13:21.792Z,7.40
2018-10-01T06:15:50.839Z,7.10
2018-10-01T06:18:19.855Z,6.27
2018-10-01T06:20:49.030Z,5.53
2018-10-01T06:23:18.042Z,6.53
2018-10-01T06:25:47.049Z,5.47
2018-10-01T06:28:16.172Z,4.90
2018-10-01T06:30:45.201Z,4.53
2018-10-01T06:33:14.254Z,3.73
2018-10-01T06:35:43.318Z,4.33
2018-10-01T06:38:12.393Z,3.47
2018-10-01T06:40:41.410Z,3.30
2018-10-01T06:43:10.616Z,3.30
2018-10-01T06:45:39.697Z,3.90
2018-10-01T06:48:08.898Z,3.10
2018-10-01T06:50:37.920Z,3.50
2018-10-01T06:53:07.648Z,2.27
2018-10-01T06:55:36.656Z,2.73
2018-10-01T06:58:05.810Z,2.70
2018-10-01T07:00:34.822Z,2.40
2018-10-01T07:03:03.810Z,2.60
2018-10-01T07:05:32.876Z,2.30
2018-10-01T07:08:01.859Z,2.40
2018-10-01T07:10:30.953Z,2.20
2018-10-01T07:12:59.978Z,2.17
2018-10-01T07:15:29.072Z,2.03
2018-10-01T07:17:58.117Z,2.50
2018-10-01T07:20:27.246Z,2.53
2018-10-01T07:22:56.375Z,2.60
2018-10-01T07:25:25.435Z,2.37
2018-10-01T07:27:54.497Z,2.37
2018-10-01T07:30:23.487Z,1.93
2018-10-01T07:32:52.505Z,2.13
2018-10-01T07:35:21.602Z,2.27
2018-10-01T07:37:50.865Z,3.27
2018-10-01T07:40:19.889Z,3.10
2018-10-01T07:42:48.962Z,2.63
2018-10-01T07:45:18.121Z,2.60
2018-10-01T07:47:47.033Z,2.27
2018-10-01T07:50:16.050Z,2.80
2018-10-01T07:52:45.087Z,2.67
2018-10-01T07:55:14.205Z,2.47
2018-10-01T07:57:43.271Z,2.20
2018-10-01T08:00:12.417Z,2.30
2018-10-01T08:02:41.437Z,2.70
2018-10-01T08:05:10.345Z,2.27
2018-10-01T08:07:39.429Z,2.50
2018-10-01T08:10:08.736Z,2.17
2018-10-01T08:12:37.678Z,2.30
2018-10-01T08:15:06.829Z,2.17
2018-10-01T08:17:35.942Z,2.17
2018-10-01T08:20:05.035Z,3.20
2018-10-01T08:22:34.115Z,3.43
2018-10-01T08:25:03.237Z,3.10
2018-10-01T08:27:32.261Z,2.90
2018-10-01T08:30:01.501Z,3.20
2018-10-01T08:32:30.611Z,3.23
2018-10-01T08:34:59.782Z,3.23
2018-10-01T08:37:28.785Z,2.97
2018-10-01T08:39:57.883Z,2.50
2018-10-01T08:42:26.937Z,2.60
2018-10-01T08:44:55.989Z,2.93
2018-10-01T08:47:25.121Z,2.83
2018-10-01T08:50:57.013Z,2.57
2018-10-01T08:54:00.597Z,3.20
2018-10-01T08:56:29.680Z,2.50
2018-10-01T08:58:58.754Z,3.03
2018-10-01T09:01:27.924Z,2.97
2018-10-01T09:03:56.955Z,2.60
2018-10-01T09:06:26.018Z,2.93
2018-10-01T09:08:55.109Z,2.60
2018-10-01T09:11:24.261Z,2.70
2018-10-01T09:13:53.421Z,2.90
2018-10-01T09:16:22.599Z,2.37
2018-10-01T09:18:51.677Z,3.00
2018-10-01T09:21:20.952Z,2.63
2018-10-01T09:23:49.993Z,3.27
2018-10-01T09:26:19.042Z,2.70
2018-10-01T09:28:48.132Z,2.97
2018-10-01T09:31:17.177Z,3.80
2018-10-01T09:33:46.257Z,3.90
2018-10-01T09:36:15.360Z,2.90
2018-10-01T09:38:44.498Z,3.10
2018-10-01T09:41:13.653Z,3.20
2018-10-01T09:43:42.625Z,3.00
2018-10-01T09:46:11.767Z,3.17
2018-10-01T09:48:40.911Z,1.83
2018-10-01T09:51:10.023Z,1.17
2018-10-01T09:53:39.175Z,1.50
2018-10-01T09:56:08.393Z,1.53
2018-10-01T09:58:37.598Z,1.80
2018-10-01T10:01:10.218Z,1.70
2018-10-01T10:03:39.576Z,2.03
2018-10-01T10:06:08.994Z,2.13
2018-10-01T10:08:38.906Z,2.40
2018-10-01T10:11:07.824Z,2.30
2018-10-01T10:13:36.810Z,2.90
2018-10-01T10:16:05.869Z,2.87
2018-10-01T10:18:34.896Z,2.70
2018-10-01T10:21:03.950Z,2.43
2018-10-01T10:23:33.016Z,2.20
2018-10-01T10:26:02.028Z,2.23
2018-10-01T10:28:31.096Z,1.90
2018-10-01T10:31:00.110Z,2.10
2018-10-01T10:33:29.158Z,2.30
2018-10-01T10:35:58.245Z,3.20
2018-10-01T10:38:27.382Z,2.37
2018-10-01T10:40:56.414Z,2.00
2018-10-01T10:43:25.530Z,2.37
2018-10-01T10:45:54.646Z,2.77
2018-10-01T10:48:23.736Z,3.00
2018-10-01T10:50:52.865Z,1.40
2018-10-01T10:53:21.934Z,1.57
2018-10-01T10:55:51.064Z,1.47
2018-10-01T10:58:20.060Z,2.33
2018-10-01T11:00:49.103Z,2.50
2018-10-01T11:03:18.239Z,2.63
2018-10-01T11:05:47.313Z,2.23
2018-10-01T11:08:16.886Z,3.07
2018-10-01T11:10:45.886Z,3.37
2018-10-01T11:13:15.112Z,2.80
2018-10-01T11:15:44.147Z,2.03
2018-10-01T11:18:13.202Z,3.00
2018-10-01T11:20:42.145Z,2.10
2018-10-01T11:23:11.176Z,2.53
2018-10-01T11:25:40.290Z,2.43
2018-10-01T11:28:09.333Z,2.83
2018-10-01T11:30:38.456Z,2.80
2018-10-01T11:33:07.552Z,2.40
2018-10-01T11:35:36.534Z,2.20
2018-10-01T11:38:05.565Z,2.60
2018-10-01T11:40:34.547Z,3.03
2018-10-01T11:43:03.572Z,3.10
2018-10-01T11:45:32.641Z,3.27
2018-10-01T11:48:01.726Z,3.00
2018-10-01T11:50:30.746Z,3.33
2018-10-01T11:52:59.757Z,4.27
2018-10-01T11:55:28.751Z,3.80
2018-10-01T11:57:57.981Z,3.00
2018-10-01T12:00:27.067Z,3.43
2018-10-01T12:02:56.174Z,4.60
2018-10-01T12:05:25.253Z,3.37
2018-10-01T12:07:54.351Z,2.87
2018-10-01T12:10:23.429Z,3.63
2018-10-01T12:12:52.430Z,3.43
2018-10-01T12:15:21.546Z,3.90
2018-10-01T12:17:50.570Z,3.40
2018-10-01T12:20:19.743Z,3.07
2018-10-01T12:22:48.923Z,2.80
2018-10-01T12:25:18.061Z,3.23
2018-10-01T12:27:47.113Z,2.97
2018-10-01T12:30:16.224Z,3.77
2018-10-01T12:32:45.377Z,2.97
2018-10-01T12:35:14.526Z,4.93
2018-10-01T12:37:43.558Z,3.50
2018-10-01T12:40:12.634Z,3.00
2018-10-01T12:42:41.748Z,2.83
2018-10-01T12:45:10.819Z,2.40
2018-10-01T12:47:39.893Z,2.93
2018-10-01T12:50:09.005Z,2.57
2018-10-01T12:52:38.048Z,3.13
2018-10-01T12:55:07.116Z,3.30
2018-10-01T12:57:36.144Z,3.10
2018-10-01T13:00:05.197Z,3.20
2018-10-01T13:02:34.261Z,3.20
2018-10-01T13:05:03.439Z,2.70
2018-10-01T13:07:32.384Z,2.10
2018-10-01T13:10:01.462Z,2.67
2018-10-01T13:12:30.575Z,3.03
2018-10-01T13:14:59.747Z,3.10
2018-10-01T13:17:28.814Z,3.20
2018-10-01T13:19:57.926Z,3.83
2018-10-01T13:22:27.041Z,3.17
2018-10-01T13:24:56.241Z,2.13
2018-10-01T13:27:25.315Z,2.33
2018-10-01T13:29:54.444Z,3.17
2018-10-01T13:32:23.526Z,2.93
2018-10-01T13:34:52.562Z,2.60
2018-10-01T13:37:21.575Z,2.57
2018-10-01T13:39:50.601Z,3.70
2018-10-01T13:42:19.882Z,2.60
2018-10-01T13:44:48.862Z,3.00
2018-10-01T13:47:17.942Z,3.27
2018-10-01T13:49:47.042Z,3.13
2018-10-01T13:52:17.359Z,2.50
2018-10-01T13:54:46.498Z,2.60
2018-10-01T13:57:15.806Z,2.63
2018-10-01T13:59:44.963Z,3.07
2018-10-01T14:02:14.211Z,2.60
2018-10-01T14:04:43.195Z,3.20
2018-10-01T14:07:12.360Z,2.90
2018-10-01T14:09:41.406Z,2.97
2018-10-01T14:12:10.474Z,3.00
2018-10-01T14:14:39.508Z,3.00
2018-10-01T14:17:08.502Z,3.50
2018-10-01T14:19:37.546Z,3.13
2018-10-01T14:22:06.702Z,2.83
2018-10-01T14:24:35.728Z,3.23
2018-10-01T14:27:04.849Z,2.77
2018-10-01T14:29:34.001Z,3.10
2018-10-01T14:32:03.448Z,2.20
2018-10-01T14:34:32.805Z,3.37
2018-10-01T14:37:01.926Z,2.33
2018-10-01T14:39:31.025Z,2.60
2018-10-01T14:42:00.157Z,2.80
2018-10-01T14:44:29.225Z,2.83
2018-10-01T14:46:58.369Z,2.90
2018-10-01T14:49:27.424Z,3.03
2018-10-01T14:51:56.949Z,3.50
2018-10-01T14:54:25.993Z,2.97
2018-10-01T14:56:55.165Z,3.77
2018-10-01T14:59:24.202Z,3.27
2018-10-01T15:01:53.385Z,3.80
2018-10-01T15:04:28.054Z,3.83
2018-10-01T15:06:57.230Z,3.97
2018-10-01T15:09:26.320Z,2.93
2018-10-01T15:11:55.428Z,3.10
2018-10-01T15:14:24.466Z,3.53
2018-10-01T15:16:53.484Z,3.63
2018-10-01T15:19:23.169Z,3.20
2018-10-01T15:21:52.299Z,3.30
2018-10-01T15:24:21.424Z,3.07
2018-10-01T15:26:51.380Z,3.20
2018-10-01T15:29:20.401Z,3.80
2018-10-01T15:31:49.532Z,3.73
2018-10-01T15:34:18.591Z,2.80
2018-10-01T15:36:47.680Z,3.17
2018-10-01T15:39:16.865Z,2.87
2018-10-01T15:41:45.997Z,3.50
2018-10-01T15:44:15.115Z,3.37
2018-10-01T15:46:44.229Z,2.77
2018-10-01T15:49:13.331Z,3.23
2018-10-01T15:51:42.348Z,3.53
2018-10-01T15:54:12.531Z,3.77
2018-10-01T15:56:41.755Z,2.97
2018-10-01T15:59:10.773Z,3.07
2018-10-01T16:01:39.895Z,3.43
2018-10-01T16:04:08.973Z,2.50
2018-10-01T16:06:38.030Z,3.33
2018-10-01T16:09:09.113Z,2.60
2018-10-01T16:11:38.482Z,3.40
2018-10-01T16:14:08.258Z,2.40
2018-10-01T16:16:37.484Z,3.30
2018-10-01T16:19:06.762Z,3.13
2018-10-01T16:21:36.143Z,2.80
2018-10-01T16:24:05.761Z,3.10
2018-10-01T16:26:34.816Z,3.07
2018-10-01T16:29:03.955Z,3.43
2018-10-01T16:31:33.015Z,2.93
2018-10-01T16:34:02.025Z,2.83
2018-10-01T16:36:31.070Z,2.70
2018-10-01T16:39:00.116Z,3.40
2018-10-01T16:41:29.198Z,3.60
2018-10-01T16:43:58.290Z,2.63
2018-10-01T16:46:27.306Z,2.90
2018-10-01T16:48:56.343Z,2.80
2018-10-01T16:51:25.481Z,2.83
2018-10-01T16:53:54.533Z,2.97
2018-10-01T16:56:23.511Z,2.47
2018-10-01T16:58:52.558Z,2.30
2018-10-01T17:01:21.916Z,3.00
2018-10-01T17:03:51.150Z,3.00
2018-10-01T17:06:24.464Z,2.20
2018-10-01T17:08:53.553Z,2.50
2018-10-01T17:11:22.610Z,2.60
2018-10-01T17:13:51.729Z,2.67
2018-10-01T17:16:20.841Z,2.50
2018-10-01T17:18:49.979Z,2.80
2018-10-01T17:21:18.979Z,3.43
2018-10-01T17:23:48.007Z,2.90
2018-10-01T17:26:17.135Z,2.90
2018-10-01T17:28:46.184Z,2.70
2018-10-01T17:31:15.202Z,2.30
2018-10-01T17:33:44.382Z,2.50
2018-10-01T17:36:13.396Z,3.10
2018-10-01T17:38:46.121Z,3.23
2018-10-01T17:41:15.143Z,2.30
2018-10-01T17:43:44.289Z,2.80
2018-10-01T17:46:13.293Z,2.47
2018-10-01T17:48:42.375Z,2.30
2018-10-01T17:51:11.427Z,2.40
2018-10-01T17:53:40.561Z,2.80
2018-10-01T17:56:10.745Z,2.60
2018-10-01T17:58:40.029Z,2.37
2018-10-01T18:01:09.321Z,2.67
2018-10-01T18:03:38.465Z,2.40
2018-10-01T18:06:07.705Z,2.27
2018-10-01T18:08:36.753Z,2.80
2018-10-01T18:11:05.880Z,2.60
2018-10-01T18:13:34.919Z,2.00
2018-10-01T18:16:04.105Z,2.70
2018-10-01T18:18:33.125Z,2.40
2018-10-01T18:21:02.174Z,2.43
2018-10-01T18:23:32.227Z,2.83
2018-10-01T18:26:03.140Z,3.20
2018-10-01T18:28:32.256Z,2.50
2018-10-01T18:31:01.318Z,2.70
2018-10-01T18:33:31.003Z,2.30
2018-10-01T18:36:00.075Z,3.10
2018-10-01T18:38:29.109Z,2.70
2018-10-01T18:40:58.106Z,2.37
2018-10-01T18:43:27.592Z,2.60
2018-10-01T18:45:56.974Z,2.60
2018-10-01T18:48:26.065Z,2.83
2018-10-01T18:50:56.235Z,2.67
2018-10-01T18:53:25.875Z,2.70
2018-10-01T18:55:55.274Z,2.77
2018-10-01T18:58:24.574Z,2.50
2018-10-01T19:00:53.624Z,3.00
2018-10-01T19:03:22.803Z,2.70
2018-10-01T19:05:51.905Z,2.40
2018-10-01T19:08:20.954Z,2.90
2018-10-01T19:10:50.052Z,2.73
2018-10-01T19:13:19.147Z,2.53
2018-10-01T19:15:48.154Z,2.63
2018-10-01T19:18:17.376Z,3.07
2018-10-01T19:20:46.406Z,2.57
2018-10-01T19:23:15.706Z,2.40
2018-10-01T19:25:44.892Z,2.23
2018-10-01T19:28:13.890Z,3.10
2018-10-01T19:30:42.894Z,2.30
2018-10-01T19:33:11.984Z,2.80
2018-10-01T19:35:41.047Z,2.30
2018-10-01T19:38:10.120Z,2.27
2018-10-01T19:40:40.204Z,2.40
2018-10-01T19:43:09.293Z,2.27
2018-10-01T19:45:38.290Z,2.60
2018-10-01T19:48:07.258Z,2.23
2018-10-01T19:50:36.294Z,2.23
2018-10-01T19:53:05.441Z,2.63
2018-10-01T19:55:34.486Z,2.33
2018-10-01T19:58:03.490Z,2.97
2018-10-01T20:00:32.487Z,3.47
2018-10-01T20:03:01.625Z,2.13
2018-10-01T20:05:30.574Z,3.20
2018-10-01T20:07:59.638Z,2.47
2018-10-01T20:10:28.602Z,3.03
2018-10-01T20:12:57.638Z,2.50
2018-10-01T20:15:26.849Z,2.67
2018-10-01T20:17:55.928Z,3.57
2018-10-01T20:20:25.054Z,3.27
2018-10-01T20:22:54.118Z,3.37
2018-10-01T20:25:23.298Z,3.10
2018-10-01T20:27:52.401Z,2.53
2018-10-01T20:30:21.350Z,3.23
2018-10-01T20:32:50.673Z,3.13
2018-10-01T20:35:19.724Z,2.90
2018-10-01T20:37:49.139Z,3.73
2018-10-01T20:40:18.104Z,3.63
2018-10-01T20:42:47.188Z,3.43
2018-10-01T20:45:16.195Z,3.00
2018-10-01T20:47:45.413Z,4.00
2018-10-01T20:50:14.484Z,3.23
2018-10-01T20:52:43.634Z,3.37
2018-10-01T20:55:12.650Z,3.30
2018-10-01T20:57:41.741Z,3.70
2018-10-01T21:00:10.865Z,4.63
2018-10-01T21:02:39.929Z,5.03
2018-10-01T21:05:08.941Z,4.60
2018-10-01T21:07:38.025Z,3.97
2018-10-01T21:10:07.129Z,4.33
2018-10-01T21:12:36.237Z,4.77
2018-10-01T21:15:05.381Z,4.30
2018-10-01T21:17:34.407Z,4.80
2018-10-01T21:20:03.521Z,4.00
2018-10-01T21:22:32.641Z,4.40
2018-10-01T21:25:01.700Z,4.63
2018-10-01T21:27:30.765Z,6.90
2018-10-01T21:29:59.821Z,5.00
2018-10-01T21:32:28.874Z,5.30
2018-10-01T21:34:57.987Z,5.00
2018-10-01T21:37:27.091Z,4.40
2018-10-01T21:40:03.447Z,5.13
2018-10-01T21:42:32.566Z,4.50
2018-10-01T21:45:02.125Z,5.73
2018-10-01T21:47:31.624Z,5.63
2018-10-01T21:50:00.725Z,6.13
2018-10-01T21:52:30.368Z,4.50
2018-10-01T21:54:59.732Z,4.50
2018-10-01T21:57:28.945Z,6.37
2018-10-01T21:59:58.011Z,4.87
2018-10-01T22:02:27.125Z,4.63
2018-10-01T22:04:56.235Z,4.63
2018-10-01T22:07:25.402Z,4.73
2018-10-01T22:09:54.451Z,5.10
2018-10-01T22:12:23.423Z,4.97
2018-10-01T22:14:52.422Z,5.53
2018-10-01T22:17:21.599Z,5.03
2018-10-01T22:19:50.688Z,6.73
2018-10-01T22:22:19.677Z,5.07
2018-10-01T22:24:48.726Z,4.50
2018-10-01T22:27:17.774Z,4.97
2018-10-01T22:29:46.776Z,5.97
2018-10-01T22:32:15.790Z,5.00
2018-10-01T22:34:44.866Z,4.97
2018-10-01T22:37:13.972Z,4.50
2018-10-01T22:39:43.074Z,4.63
2018-10-01T22:42:12.144Z,6.23
2018-10-01T22:44:41.176Z,6.03
2018-10-01T22:47:10.241Z,5.67
2018-10-01T22:49:39.213Z,5.57
2018-10-01T22:52:08.230Z,5.20
2018-10-01T22:54:37.324Z,4.90
2018-10-01T22:57:06.411Z,6.23
2018-10-01T22:59:35.478Z,6.00
2018-10-01T23:02:04.509Z,5.33
2018-10-01T23:04:33.601Z,5.43
2018-10-01T23:07:02.696Z,5.03
2018-10-01T23:09:31.765Z,5.20
2018-10-01T23:12:00.749Z,5.10
2018-10-01T23:14:29.762Z,5.40
2018-10-01T23:16:58.889Z,5.90
2018-10-01T23:19:27.981Z,5.57
2018-10-01T23:21:57.045Z,6.53
2018-10-01T23:24:26.039Z,5.83
2018-10-01T23:26:58.132Z,6.07
2018-10-01T23:29:27.169Z,6.03
2018-10-01T23:31:56.289Z,5.97
2018-10-01T23:34:25.405Z,5.47
2018-10-01T23:36:54.405Z,5.40
2018-10-01T23:39:23.485Z,5.20
2018-10-01T23:41:52.501Z,5.93
2018-10-01T23:44:21.581Z,4.97
2018-10-01T23:46:50.653Z,5.60
2018-10-01T23:49:19.737Z,5.60
2018-10-01T23:51:48.727Z,5.87
2018-10-01T23:54:17.693Z,5.77
2018-10-01T23:56:46.693Z,5.70
2018-10-01T23:59:15.707Z,6.73
